Time;durP1;ratioP1;P1;durP2;ratioP2;P2;SDS_P1;SDS_P2;PMS_P1;PMS_P2;Temp;Humidity;BMP_temperature;BMP_pressure;BME280_temperature;BME280_humidity;BME280_pressure;Samples;Min_cycle;Max_cycle;Signal;HPM_P1;HPM_P2
2023/09/14 00:01:49;;;;;;;5.63;2.45;;;;;;;13.55;100.00;101942.53;5011732;28;20137;-70
2023/09/14 00:04:14;;;;;;;7.40;2.80;;;;;;;13.53;100.00;101936.66;5008408;28;20044;-70
2023/09/14 00:06:41;;;;;;;7.13;2.75;;;;;;;13.51;100.00;101939.41;5009064;28;20045;-70
2023/09/14 00:09:07;;;;;;;6.10;2.95;;;;;;;13.46;100.00;101946.03;5008264;28;20376;-70
2023/09/14 00:11:33;;;;;;;5.03;2.65;;;;;;;13.39;100.00;101940.56;5008688;28;20041;-70
2023/09/14 00:13:58;;;;;;;5.88;2.30;;;;;;;13.34;100.00;101941.03;5008743;28;20033;-70
2023/09/14 00:16:24;;;;;;;7.43;3.03;;;;;;;13.32;100.00;101935.16;5008954;28;20676;-70
2023/09/14 00:18:50;;;;;;;7.03;2.70;;;;;;;13.30;100.00;101938.81;5008613;28;20033;-70
2023/09/14 00:21:15;;;;;;;5.35;2.72;;;;;;;13.29;100.00;101940.59;5010433;28;20037;-70
2023/09/14 00:23:41;;;;;;;5.25;2.42;;;;;;;13.26;100.00;101940.91;5009451;28;20034;-71
2023/09/14 00:26:06;;;;;;;5.28;2.85;;;;;;;13.25;100.00;101936.66;5008035;28;20022;-70
2023/09/14 00:28:32;;;;;;;6.78;3.00;;;;;;;13.23;100.00;101929.00;4990979;28;20038;-70
2023/09/14 00:30:58;;;;;;;7.32;2.92;;;;;;;13.22;100.00;101929.13;5011232;28;20036;-71
2023/09/14 00:33:23;;;;;;;6.85;2.90;;;;;;;13.20;100.00;101928.47;5010006;28;20752;-70
2023/09/14 00:35:49;;;;;;;9.30;3.35;;;;;;;13.15;100.00;101926.31;5010031;28;20116;-70
2023/09/14 00:38:15;;;;;;;6.07;2.75;;;;;;;13.15;100.00;101930.69;5009493;28;20065;-70
2023/09/14 00:40:41;;;;;;;7.78;3.17;;;;;;;13.13;100.00;101930.84;5012725;28;20168;-71
2023/09/14 00:43:06;;;;;;;3.65;2.72;;;;;;;13.12;100.00;101930.97;5009016;28;20504;-71
2023/09/14 00:45:33;;;;;;;6.95;2.55;;;;;;;13.13;100.00;101937.81;5011960;28;20037;-69
2023/09/14 00:48:02;;;;;;;4.70;2.80;;;;;;;13.12;100.00;101934.41;5024022;28;20407;-70
2023/09/14 00:50:29;;;;;;;7.72;3.80;;;;;;;13.09;100.00;101933.88;4993499;28;20029;-70
2023/09/14 00:53:02;;;;;;;5.93;3.97;;;;;;;13.08;100.00;101938.25;5032643;28;20072;-70
2023/09/14 00:55:29;;;;;;;5.25;3.05;;;;;;;13.04;100.00;101926.50;5007116;28;20124;-70
2023/09/14 00:57:59;;;;;;;9.38;3.20;;;;;;;13.02;100.00;101928.44;5007219;28;20061;-70
2023/09/14 01:00:25;;;;;;;5.68;3.28;;;;;;;12.99;100.00;101926.91;5005757;28;20041;-71
2023/09/14 01:02:52;;;;;;;8.60;3.00;;;;;;;12.96;100.00;101929.81;5006359;28;20066;-70
2023/09/14 01:05:18;;;;;;;10.27;3.70;;;;;;;12.95;100.00;101930.78;5006800;28;20038;-71
2023/09/14 01:07:44;;;;;;;6.15;3.10;;;;;;;12.93;100.00;101932.72;5008661;28;20428;-70
2023/09/14 01:10:10;;;;;;;6.82;3.42;;;;;;;12.92;100.00;101941.50;4996532;28;20046;-71
2023/09/14 01:12:37;;;;;;;8.50;3.35;;;;;;;12.91;100.00;101939.03;5011297;28;20090;-70
2023/09/14 01:15:15;;;;;;;5.35;3.08;;;;;;;12.88;100.00;101950.53;5005783;28;20112;-71
2023/09/14 01:17:46;;;;;;;5.55;3.10;;;;;;;12.85;100.00;101945.63;5007542;28;20048;-70
2023/09/14 01:20:19;;;;;;;5.57;3.50;;;;;;;12.86;100.00;101952.47;5021228;28;20061;-72
2023/09/14 01:22:48;;;;;;;7.10;3.47;;;;;;;12.84;100.00;101943.97;5011149;28;20038;-70
2023/09/14 01:25:14;;;;;;;6.13;3.70;;;;;;;12.84;100.00;101946.56;5006958;28;20660;-71
2023/09/14 01:27:39;;;;;;;7.30;3.85;;;;;;;12.82;100.00;101943.31;5006257;28;20112;-71
2023/09/14 01:30:06;;;;;;;6.45;3.60;;;;;;;12.82;100.00;101935.50;5009580;28;20072;-71
2023/09/14 01:32:32;;;;;;;8.40;3.80;;;;;;;12.84;100.00;101941.38;5010341;28;20067;-70
2023/09/14 01:34:58;;;;;;;9.13;4.18;;;;;;;12.86;100.00;101942.03;5008750;28;20116;-71
2023/09/14 01:37:25;;;;;;;6.88;4.28;;;;;;;12.86;100.00;101942.03;5005177;28;20113;-72
2023/09/14 01:39:53;;;;;;;6.93;3.55;;;;;;;12.84;100.00;101943.97;5008686;28;20045;-70
2023/09/14 01:42:21;;;;;;;6.88;3.40;;;;;;;12.82;100.00;101940.69;5006970;28;20037;-71
2023/09/14 01:44:48;;;;;;;8.60;3.50;;;;;;;12.79;100.00;101951.38;5011639;28;20042;-71
2023/09/14 01:47:14;;;;;;;6.78;3.30;;;;;;;12.78;100.00;101947.97;5008243;28;20045;-71
2023/09/14 01:49:39;;;;;;;6.70;3.53;;;;;;;12.79;100.00;101951.38;5009367;28;20038;-71
2023/09/14 01:52:05;;;;;;;7.22;3.50;;;;;;;12.81;100.00;101952.09;5007102;28;20057;-72
2023/09/14 01:54:31;;;;;;;8.70;3.42;;;;;;;12.82;100.00;101951.09;5010872;28;20589;-71
2023/09/14 01:56:57;;;;;;;8.90;4.68;;;;;;;12.84;100.00;101946.56;5010679;28;20049;-72
2023/09/14 01:59:22;;;;;;;7.40;3.78;;;;;;;12.84;100.00;101952.59;5007904;28;20037;-72
2023/09/14 02:01:48;;;;;;;8.02;3.42;;;;;;;12.84;100.00;101952.59;5007263;28;20034;-71
2023/09/14 02:04:14;;;;;;;5.82;3.22;;;;;;;12.85;100.00;101948.22;5011780;28;20034;-72
2023/09/14 02:06:39;;;;;;;6.45;3.22;;;;;;;12.85;100.00;101958.66;5007948;28;20431;-71
2023/09/14 02:09:05;;;;;;;7.00;3.17;;;;;;;12.84;100.00;101947.38;5007007;28;20041;-71
2023/09/14 02:11:31;;;;;;;7.95;3.65;;;;;;;12.83;100.00;101950.16;5006716;28;20046;-71
2023/09/14 02:13:56;;;;;;;5.05;3.40;;;;;;;12.76;100.00;101941.28;5009561;28;20085;-72
2023/09/14 02:16:22;;;;;;;4.53;3.15;;;;;;;12.70;100.00;101944.47;5007397;28;20038;-72
2023/09/14 02:18:48;;;;;;;5.43;2.97;;;;;;;12.63;100.00;101937.19;5014708;28;20203;-71
2023/09/14 02:21:16;;;;;;;8.32;3.38;;;;;;;12.58;100.00;101941.19;5012432;28;20041;-71
2023/09/14 02:23:43;;;;;;;8.63;3.17;;;;;;;12.53;100.00;101943.41;5010080;28;20173;-71
2023/09/14 02:26:08;;;;;;;7.22;3.45;;;;;;;12.51;100.00;101942.69;5024548;28;20088;-71
2023/09/14 02:28:34;;;;;;;7.65;3.38;;;;;;;12.51;100.00;101955.72;4994583;28;20049;-72
2023/09/14 02:31:05;;;;;;;5.85;2.95;;;;;;;12.52;100.00;101947.78;5012100;28;20110;-72
2023/09/14 02:33:31;;;;;;;9.93;3.53;;;;;;;12.52;100.00;101947.78;5027095;28;20022;-71
2023/09/14 02:35:56;;;;;;;6.65;3.28;;;;;;;12.53;100.00;101949.44;5010142;28;20041;-71
2023/09/14 02:38:22;;;;;;;7.18;3.03;;;;;;;12.53;100.00;101949.44;5010568;28;20111;-71
2023/09/14 02:40:48;;;;;;;7.97;3.25;;;;;;;12.50;100.00;101943.69;5011038;28;20562;-71
2023/09/14 02:43:13;;;;;;;5.80;3.40;;;;;;;12.43;100.00;101944.25;5011383;28;20037;-71
2023/09/14 02:45:39;;;;;;;6.93;3.30;;;;;;;12.35;100.00;101941.50;5011235;28;20600;-71
2023/09/14 02:48:05;;;;;;;8.18;2.97;;;;;;;12.28;100.00;101945.63;5013440;28;20030;-71
2023/09/14 02:50:31;;;;;;;6.57;3.47;;;;;;;12.24;100.00;101945.09;4994642;28;20034;-71
2023/09/14 02:52:57;;;;;;;7.07;3.10;;;;;;;12.20;100.00;101946.31;5010594;28;20519;-72
2023/09/14 02:55:22;;;;;;;8.68;3.35;;;;;;;12.18;100.00;101944.81;5027434;28;20073;-71
2023/09/14 02:57:48;;;;;;;6.75;3.30;;;;;;;12.12;100.00;101942.78;5026901;28;20033;-72
2023/09/14 03:00:17;;;;;;;7.47;3.05;;;;;;;12.09;100.00;101941.25;5010500;28;20033;-71
2023/09/14 03:02:44;;;;;;;8.93;3.72;;;;;;;12.10;100.00;101937.72;5010148;28;20036;-71
2023/09/14 03:05:10;;;;;;;8.15;3.60;;;;;;;12.13;100.00;101944.41;4994127;28;20041;-71
2023/09/14 03:07:37;;;;;;;6.43;3.13;;;;;;;12.15;100.00;101942.50;5026860;28;20037;-71
2023/09/14 03:10:03;;;;;;;9.07;3.70;;;;;;;12.16;100.00;101944.16;5010941;28;20121;-72
2023/09/14 03:12:29;;;;;;;6.03;3.78;;;;;;;12.16;100.00;101946.75;5024847;28;20030;-72
2023/09/14 03:14:55;;;;;;;7.43;4.03;;;;;;;12.16;100.00;101942.34;5007319;28;20122;-71
2023/09/14 03:17:21;;;;;;;8.75;3.92;;;;;;;12.16;100.00;101944.97;5012191;28;20049;-72
2023/09/14 03:19:48;;;;;;;6.70;3.50;;;;;;;12.14;100.00;101939.06;5027041;28;20033;-71
2023/09/14 03:22:14;;;;;;;7.65;3.05;;;;;;;12.14;100.00;101944.28;5012918;28;20052;-71
2023/09/14 03:24:40;;;;;;;15.50;3.25;;;;;;;12.13;100.00;101949.59;5010983;28;20120;-71
2023/09/14 03:27:06;;;;;;;7.32;3.58;;;;;;;12.10;100.00;101949.91;5006850;28;20034;-71
2023/09/14 03:29:32;;;;;;;7.20;4.07;;;;;;;12.07;100.00;101954.44;4991402;28;20022;-71
2023/09/14 03:31:59;;;;;;;6.70;3.45;;;;;;;12.03;100.00;101942.63;5008929;28;20496;-71
2023/09/14 03:34:25;;;;;;;7.57;3.67;;;;;;;11.98;100.00;101950.03;5008171;28;20105;-71
2023/09/14 03:36:51;;;;;;;6.10;3.15;;;;;;;11.95;100.00;101946.91;5008377;28;20093;-71
2023/09/14 03:39:17;;;;;;;5.68;3.55;;;;;;;11.94;100.00;101948.69;5012783;28;20728;-71
2023/09/14 03:41:43;;;;;;;5.95;3.45;;;;;;;11.93;100.00;101949.63;5010239;28;21314;-72
2023/09/14 03:44:08;;;;;;;12.05;3.72;;;;;;;11.92;100.00;101941.97;5011690;28;20037;-72
2023/09/14 03:46:34;;;;;;;8.20;3.60;;;;;;;11.92;100.00;101947.16;5005529;28;20377;-71
2023/09/14 03:49:02;;;;;;;8.98;3.50;;;;;;;11.90;100.00;101939.50;5009783;28;20121;-72
2023/09/14 03:51:28;;;;;;;7.82;3.92;;;;;;;11.88;100.00;101936.19;5022816;28;20026;-72
2023/09/14 03:53:54;;;;;;;9.20;3.70;;;;;;;11.85;100.00;101933.88;5013087;28;20036;-71
2023/09/14 03:56:20;;;;;;;10.68;3.78;;;;;;;11.83;100.00;101941.00;5016126;28;20041;-72
2023/09/14 03:58:45;;;;;;;6.63;3.88;;;;;;;11.78;100.00;101940.56;5009428;28;20077;-72
2023/09/14 04:01:11;;;;;;;8.10;4.10;;;;;;;11.70;100.00;101941.25;5017505;28;20053;-72
2023/09/14 04:03:36;;;;;;;6.15;3.13;;;;;;;11.64;100.00;101942.63;5008291;28;20053;-71
2023/09/14 04:06:02;;;;;;;8.75;3.60;;;;;;;11.58;100.00;101943.13;5010960;28;20036;-71
2023/09/14 04:08:28;;;;;;;6.80;3.58;;;;;;;11.53;100.00;101934.94;5014645;28;20029;-71
2023/09/14 04:10:54;;;;;;;8.40;3.90;;;;;;;11.50;100.00;101940.41;5011132;28;20033;-73
2023/09/14 04:13:35;;;;;;;6.97;3.15;;;;;;;11.49;100.00;101943.97;5014552;28;20052;-71
2023/09/14 04:16:09;;;;;;;7.20;3.50;;;;;;;11.50;100.00;101937.78;5023297;28;20448;-72
2023/09/14 04:18:38;;;;;;;7.18;3.40;;;;;;;11.48;100.00;101937.13;5012384;28;20484;-72
2023/09/14 04:21:05;;;;;;;9.38;3.50;;;;;;;11.45;100.00;101938.22;5010916;28;20022;-72
2023/09/14 04:23:32;;;;;;;8.18;3.92;;;;;;;11.42;100.00;101935.88;5009847;28;20080;-71
2023/09/14 04:26:00;;;;;;;8.68;3.33;;;;;;;11.36;100.00;101932.97;5008554;28;20029;-72
2023/09/14 04:28:26;;;;;;;5.88;3.25;;;;;;;11.31;100.00;101943.78;5026229;28;20037;-72
2023/09/14 04:30:57;;;;;;;5.90;3.55;;;;;;;11.28;100.00;101944.03;5008893;28;20029;-72
2023/09/14 04:33:24;;;;;;;7.30;3.83;;;;;;;11.23;100.00;101947.03;5026549;28;20399;-72
2023/09/14 04:35:56;;;;;;;10.55;3.60;;;;;;;11.24;100.00;101946.06;5006969;28;20515;-72
2023/09/14 04:38:22;;;;;;;5.45;3.40;;;;;;;11.26;100.00;101949.38;5006630;28;20050;-72
2023/09/14 04:40:48;;;;;;;9.98;3.88;;;;;;;11.29;100.00;101948.28;5015266;28;20048;-71
2023/09/14 04:43:15;;;;;;;10.52;4.45;;;;;;;11.30;100.00;101952.50;5014163;28;20050;-71
2023/09/14 04:45:40;;;;;;;7.25;4.00;;;;;;;11.32;100.00;101944.59;5013801;28;20025;-71
2023/09/14 04:48:07;;;;;;;8.93;3.70;;;;;;;11.30;100.00;101945.56;5007931;28;20057;-71
2023/09/14 04:50:33;;;;;;;9.68;3.70;;;;;;;11.25;100.00;101949.50;5013068;28;20030;-72
2023/09/14 04:52:59;;;;;;;7.72;3.60;;;;;;;11.21;100.00;101945.53;5009075;28;20725;-72
2023/09/14 04:55:25;;;;;;;10.00;3.90;;;;;;;11.15;100.00;101946.03;5009036;28;20041;-72
2023/09/14 04:57:51;;;;;;;7.22;3.20;;;;;;;11.10;100.00;101944.66;5005276;28;20030;-72
2023/09/14 05:00:17;;;;;;;9.23;3.38;;;;;;;11.07;100.00;101944.09;5015178;28;20094;-71
2023/09/14 05:02:45;;;;;;;5.53;3.13;;;;;;;11.04;100.00;101939.19;5012984;28;20037;-71
2023/09/14 05:05:11;;;;;;;9.43;3.67;;;;;;;11.02;100.00;101947.09;5010966;28;20036;-71
2023/09/14 05:07:39;;;;;;;7.32;3.85;;;;;;;11.00;100.00;101951.59;5026707;28;20515;-72
2023/09/14 05:10:07;;;;;;;6.40;3.67;;;;;;;10.98;100.00;101950.91;5015325;28;20643;-71
2023/09/14 05:12:33;;;;;;;6.57;2.88;;;;;;;10.95;100.00;101942.56;5006612;28;20034;-72
2023/09/14 05:14:59;;;;;;;9.15;3.50;;;;;;;10.93;100.00;101949.66;5009089;28;20626;-72
2023/09/14 05:17:25;;;;;;;8.73;3.70;;;;;;;10.91;100.00;101949.78;5011032;28;20045;-72
2023/09/14 05:19:51;;;;;;;6.40;3.10;;;;;;;10.88;100.00;101943.06;5010662;28;20037;-72
2023/09/14 05:22:16;;;;;;;5.78;3.50;;;;;;;10.88;100.00;101950.84;5008047;28;20107;-72
2023/09/14 05:24:42;;;;;;;7.43;3.55;;;;;;;10.87;100.00;101953.59;5022946;28;20037;-71
2023/09/14 05:27:08;;;;;;;5.57;3.40;;;;;;;10.88;100.00;101953.44;5025587;28;20095;-72
2023/09/14 05:29:34;;;;;;;8.25;3.45;;;;;;;10.93;100.00;101963.47;5010737;28;20051;-71
2023/09/14 05:32:00;;;;;;;4.95;2.85;;;;;;;10.98;100.00;101968.25;5009499;28;20908;-71
2023/09/14 05:34:26;;;;;;;6.63;3.50;;;;;;;11.01;100.00;101958.44;5012648;28;20120;-71
2023/09/14 05:36:52;;;;;;;9.63;4.05;;;;;;;11.03;100.00;101964.31;5011753;28;20049;-72
2023/09/14 05:39:19;;;;;;;6.82;3.33;;;;;;;11.06;100.00;101958.88;5023807;28;20034;-72
2023/09/14 05:41:45;;;;;;;6.32;3.25;;;;;;;11.07;100.00;101960.50;4993763;28;20041;-72
2023/09/14 05:44:10;;;;;;;6.68;3.95;;;;;;;11.08;100.00;101969.13;5010848;28;20408;-72
2023/09/14 05:46:37;;;;;;;10.93;3.65;;;;;;;11.10;100.00;101973.22;4991398;28;20405;-72
2023/09/14 05:49:03;;;;;;;8.80;3.70;;;;;;;11.13;100.00;101968.72;5009249;28;20034;-71
2023/09/14 05:51:29;;;;;;;8.45;3.72;;;;;;;11.14;100.00;101966.00;5012558;28;20037;-71
2023/09/14 05:53:56;;;;;;;10.80;4.55;;;;;;;11.17;100.00;101976.13;5028222;28;20117;-72
2023/09/14 05:56:24;;;;;;;10.73;3.88;;;;;;;11.19;100.00;101978.56;5028445;28;20035;-72
2023/09/14 05:58:49;;;;;;;11.20;4.07;;;;;;;11.20;100.00;101975.03;5029597;28;20034;-72
2023/09/14 06:01:15;;;;;;;10.50;3.75;;;;;;;11.21;100.00;101974.91;5007641;28;20040;-72
2023/09/14 06:03:41;;;;;;;8.02;3.80;;;;;;;11.22;100.00;101980.91;5025107;28;20496;-72
2023/09/14 06:06:07;;;;;;;6.38;3.22;;;;;;;11.23;100.00;101973.00;5026606;28;20022;-72
2023/09/14 06:08:32;;;;;;;6.35;4.05;;;;;;;11.26;100.00;101979.69;5007859;28;20034;-72
2023/09/14 06:10:58;;;;;;;5.28;3.58;;;;;;;11.30;100.00;101981.06;4996962;28;20026;-72
2023/09/14 06:13:25;;;;;;;8.88;3.80;;;;;;;11.35;100.00;101985.88;5014008;28;20484;-72
2023/09/14 06:15:51;;;;;;;6.95;4.03;;;;;;;11.39;100.00;101990.66;4998232;28;20030;-72
2023/09/14 06:18:17;;;;;;;8.95;3.60;;;;;;;11.45;100.00;101992.75;5009379;28;20056;-72
2023/09/14 06:20:43;;;;;;;9.13;4.07;;;;;;;11.50;100.00;101989.75;5028530;28;21771;-71
2023/09/14 06:23:09;;;;;;;8.85;4.13;;;;;;;11.57;100.00;101996.06;5025535;28;20144;-72
2023/09/14 06:25:34;;;;;;;8.68;3.97;;;;;;;11.67;100.00;101989.09;5011284;28;20033;-72
2023/09/14 06:28:00;;;;;;;7.55;4.05;;;;;;;11.80;100.00;101988.84;5013718;28;20326;-72
2023/09/14 06:30:26;;;;;;;6.90;3.75;;;;;;;11.96;100.00;101995.31;5008901;28;20499;-72
2023/09/14 06:32:52;;;;;;;11.00;4.18;;;;;;;12.14;100.00;102004.09;5012658;28;20386;-72
2023/09/14 06:35:17;;;;;;;9.40;4.80;;;;;;;12.33;100.00;102005.84;5012989;28;20041;-72
2023/09/14 06:37:43;;;;;;;7.80;4.35;;;;;;;12.52;100.00;102010.22;5012401;28;20042;-72
2023/09/14 06:40:10;;;;;;;11.32;4.78;;;;;;;12.76;100.00;102009.75;5013377;28;20515;-72
2023/09/14 06:42:36;;;;;;;9.95;4.75;;;;;;;13.05;100.00;102003.63;5010419;28;20132;-72
2023/09/14 06:45:03;;;;;;;15.73;5.78;;;;;;;13.56;100.00;101998.88;5015188;28;20079;-72
2023/09/14 06:47:28;;;;;;;17.02;5.47;;;;;;;14.35;100.00;101994.72;5010608;28;20073;-72
2023/09/14 06:49:54;;;;;;;7.80;4.60;;;;;;;15.24;100.00;101991.03;5012664;28;20392;-72
2023/09/14 06:52:20;;;;;;;8.48;4.50;;;;;;;15.96;100.00;101983.50;5010960;28;20525;-72
2023/09/14 06:54:46;;;;;;;11.35;4.78;;;;;;;16.65;97.37;101988.38;5007845;28;20038;-72
2023/09/14 06:57:12;;;;;;;8.93;4.00;;;;;;;17.25;93.58;101987.06;5011344;28;20052;-72
2023/09/14 06:59:38;;;;;;;7.82;4.07;;;;;;;17.71;90.28;101984.47;5014324;28;20037;-72
2023/09/14 07:02:03;;;;;;;10.90;4.25;;;;;;;17.99;87.61;101988.41;5028298;28;20408;-73
2023/09/14 07:04:30;;;;;;;9.48;3.90;;;;;;;18.31;86.63;101986.47;5009951;28;20032;-72
2023/09/14 07:06:55;;;;;;;9.43;3.60;;;;;;;18.43;85.69;101985.88;5007220;28;20038;-73
2023/09/14 07:09:21;;;;;;;8.65;4.35;;;;;;;18.83;83.73;101980.41;5009617;28;20029;-72
2023/09/14 07:11:46;;;;;;;8.27;3.38;;;;;;;18.97;79.28;101984.03;5007476;28;20057;-72
2023/09/14 07:14:12;;;;;;;9.68;4.30;;;;;;;18.81;82.61;101985.84;5011288;28;20499;-72
2023/09/14 07:16:38;;;;;;;8.35;3.72;;;;;;;19.16;78.82;101985.28;5009325;28;20038;-73
2023/09/14 07:19:03;;;;;;;6.63;4.55;;;;;;;19.32;79.23;101990.28;5010830;28;20049;-72
2023/09/14 07:21:32;;;;;;;8.93;4.05;;;;;;;19.70;77.51;101991.91;5006463;28;20045;-73
2023/09/14 07:23:59;;;;;;;9.02;3.50;;;;;;;19.87;76.24;101990.66;5009640;28;20277;-73
2023/09/14 07:26:26;;;;;;;8.57;3.53;;;;;;;20.00;75.89;101996.06;5008662;28;20038;-73
2023/09/14 07:28:51;;;;;;;10.23;3.92;;;;;;;20.41;74.30;101995.34;5022124;28;20030;-73
2023/09/14 07:31:17;;;;;;;6.60;3.55;;;;;;;20.70;72.56;101992.72;5010773;28;20511;-73
2023/09/14 07:33:46;;;;;;;11.40;3.47;;;;;;;21.00;70.96;101996.72;5007909;28;20205;-73
2023/09/14 07:36:11;;;;;;;14.77;4.55;;;;;;;21.03;70.72;101998.16;5009445;28;20053;-73
2023/09/14 07:38:37;;;;;;;8.50;3.72;;;;;;;21.17;68.17;102001.63;5009815;28;20412;-73
2023/09/14 07:41:03;;;;;;;8.63;4.22;;;;;;;21.00;67.76;101993.25;5027412;28;20029;-73
2023/09/14 07:43:28;;;;;;;10.07;4.32;;;;;;;20.87;68.72;102004.59;5011990;28;20444;-73
2023/09/14 07:45:57;;;;;;;9.57;4.10;;;;;;;20.75;70.38;102004.28;5010532;28;20399;-73
2023/09/14 07:48:22;;;;;;;8.30;4.32;;;;;;;20.73;71.24;102002.88;5030339;28;20500;-72
2023/09/14 07:50:48;;;;;;;16.83;6.55;;;;;;;20.79;70.20;102005.56;5025981;28;20072;-72
2023/09/14 07:53:14;;;;;;;11.10;6.55;;;;;;;20.73;71.41;102000.25;5011690;28;20038;-72
2023/09/14 07:55:40;;;;;;;12.13;6.72;;;;;;;21.02;70.59;102004.44;5012116;28;20145;-73
2023/09/14 07:58:08;;;;;;;13.55;6.03;;;;;;;21.20;71.24;102006.53;5029840;28;20061;-73
2023/09/14 08:00:35;;;;;;;18.48;5.85;;;;;;;21.60;67.79;102009.31;5010469;28;20029;-72
2023/09/14 08:03:02;;;;;;;11.82;5.78;;;;;;;21.89;69.55;102009.97;5013505;28;20037;-72
2023/09/14 08:05:28;;;;;;;12.50;6.03;;;;;;;21.94;67.50;102007.53;4992115;28;20120;-72
2023/09/14 08:07:54;;;;;;;11.77;5.75;;;;;;;22.23;66.09;102006.31;5008208;28;20441;-72
2023/09/14 08:10:20;;;;;;;11.07;6.10;;;;;;;22.49;64.06;101997.56;5009688;28;20037;-73
2023/09/14 08:12:46;;;;;;;11.55;4.82;;;;;;;22.51;63.59;102000.00;5007081;23;20201;-68
2023/09/14 08:15:12;;;;;;;10.00;4.90;;;;;;;22.78;65.37;101995.44;4983565;28;20635;-68
2023/09/14 08:17:37;;;;;;;11.27;5.35;;;;;;;22.79;62.51;102001.53;4968924;28;20050;-68
2023/09/14 08:20:04;;;;;;;12.07;4.55;;;;;;;22.94;63.09;101997.63;4971770;28;20034;-67
2023/09/14 08:22:30;;;;;;;13.35;5.00;;;;;;;23.09;61.79;101991.28;4990201;28;20454;-67
2023/09/14 08:25:00;;;;;;;10.73;4.97;;;;;;;22.87;60.62;101996.84;4988876;28;20033;-68
2023/09/14 08:27:28;;;;;;;17.02;6.15;;;;;;;22.89;62.04;101992.16;4972408;28;20033;-67
2023/09/14 08:29:53;;;;;;;10.32;4.93;;;;;;;23.19;60.57;101996.94;4989894;28;20092;-68
2023/09/14 08:32:20;;;;;;;9.80;4.60;;;;;;;22.64;62.58;101993.84;4985892;28;20053;-67
2023/09/14 08:34:45;;;;;;;12.98;4.90;;;;;;;22.97;62.39;102000.88;4989211;28;20064;-67
2023/09/14 08:37:11;;;;;;;9.02;4.72;;;;;;;23.07;60.00;102002.06;4988401;28;20408;-67
2023/09/14 08:39:38;;;;;;;9.50;5.60;;;;;;;23.06;60.44;102011.03;4994128;28;20031;-67
2023/09/14 08:42:04;;;;;;;8.77;4.72;;;;;;;22.98;59.76;102000.69;4988822;28;20042;-67
2023/09/14 08:44:33;;;;;;;8.95;4.97;;;;;;;22.91;61.09;102008.63;4990539;28;20026;-67
2023/09/14 08:47:01;;;;;;;11.95;5.32;;;;;;;23.01;59.66;102013.47;4989191;28;20663;-67
2023/09/14 08:49:28;;;;;;;9.45;3.85;;;;;;;23.33;59.43;102010.91;4991387;28;20076;-67
2023/09/14 08:51:55;;;;;;;8.90;4.20;;;;;;;23.20;58.89;102008.31;4991298;28;20046;-67
2023/09/14 08:54:23;;;;;;;12.07;4.78;;;;;;;23.16;60.67;102007.13;4992455;28;20061;-67
2023/09/14 08:56:49;;;;;;;10.48;4.40;;;;;;;23.21;58.54;101997.53;4988636;28;20113;-67
2023/09/14 08:59:18;;;;;;;9.38;4.03;;;;;;;23.42;58.02;102001.69;4990674;28;20097;-67
2023/09/14 09:01:47;;;;;;;8.48;4.10;;;;;;;23.43;57.99;102005.97;5003743;28;20097;-67
2023/09/14 09:04:12;;;;;;;11.77;4.15;;;;;;;23.60;58.21;102006.28;4988596;28;20030;-67
2023/09/14 09:06:40;;;;;;;8.98;3.60;;;;;;;23.49;57.67;101996.38;4987728;28;20527;-67
2023/09/14 09:09:06;;;;;;;7.25;3.13;;;;;;;23.50;57.35;102004.06;4985631;28;20064;-67
2023/09/14 09:11:32;;;;;;;14.50;3.50;;;;;;;23.40;58.71;102001.09;5002723;28;20038;-67
2023/09/14 09:13:58;;;;;;;10.20;4.63;;;;;;;23.44;57.83;102001.50;4991897;28;20117;-67
2023/09/14 09:16:23;;;;;;;10.10;4.38;;;;;;;23.35;59.88;102003.56;4975318;28;20046;-67
2023/09/14 09:19:02;;;;;;;6.82;3.92;;;;;;;23.44;59.52;102004.94;4973275;28;20049;-67
2023/09/14 09:21:30;;;;;;;7.72;4.15;;;;;;;23.32;58.66;101998.72;4987552;28;20050;-67
2023/09/14 09:23:57;;;;;;;7.28;3.83;;;;;;;23.07;58.12;102004.72;4985190;28;20038;-67
2023/09/14 09:26:24;;;;;;;6.03;3.63;;;;;;;22.26;61.87;102005.91;4988682;28;20027;-67
2023/09/14 09:28:49;;;;;;;7.25;3.33;;;;;;;21.74;61.18;102008.31;5011127;28;20038;-68
2023/09/14 09:31:16;;;;;;;13.82;4.15;;;;;;;21.52;63.19;102004.22;4989813;28;20049;-67
2023/09/14 09:33:47;;;;;;;5.28;3.03;;;;;;;21.82;62.62;102011.78;4996163;28;20738;-67
2023/09/14 09:36:15;;;;;;;6.13;3.70;;;;;;;21.41;63.48;102013.50;4978957;28;20050;-66
2023/09/14 09:38:41;;;;;;;8.68;4.50;;;;;;;21.35;66.39;102006.38;4994038;28;20104;-67
2023/09/14 09:41:10;;;;;;;10.48;6.25;;;;;;;21.75;67.01;102001.22;4989286;28;20109;-67
2023/09/14 09:43:40;;;;;;;13.75;7.45;;;;;;;21.57;64.98;102002.63;4994961;28;20080;-67
2023/09/14 09:46:15;;;;;;;13.48;7.70;;;;;;;21.56;64.42;102003.63;5005919;28;20044;-67
2023/09/14 09:48:41;;;;;;;17.23;9.60;;;;;;;21.61;66.85;102004.88;5010092;28;20030;-67
2023/09/14 09:51:07;;;;;;;15.30;7.90;;;;;;;21.64;65.12;102001.81;4993474;28;20042;-67
2023/09/14 09:53:35;;;;;;;13.27;7.63;;;;;;;21.59;66.85;101999.78;4996917;28;20082;-67
2023/09/14 09:56:04;;;;;;;14.18;8.77;;;;;;;21.62;68.77;102003.84;4985136;28;20129;-67
2023/09/14 09:58:37;;;;;;;15.30;8.70;;;;;;;21.26;68.16;101999.66;4990613;28;20042;-67
2023/09/14 10:01:03;;;;;;;18.27;11.90;;;;;;;21.27;68.79;102004.75;4991686;28;20420;-68
2023/09/14 10:03:33;;;;;;;22.42;11.98;;;;;;;21.38;69.10;102000.72;4995494;28;20034;-67
2023/09/14 10:05:58;;;;;;;24.17;11.13;;;;;;;21.22;70.69;101998.44;4992298;28;20096;-67
2023/09/14 10:08:24;;;;;;;20.45;10.43;;;;;;;21.41;69.86;102002.13;4992871;28;20563;-67
2023/09/14 10:10:51;;;;;;;19.92;8.68;;;;;;;21.70;65.64;102004.47;4990663;28;20050;-69
2023/09/14 10:13:22;;;;;;;19.40;9.77;;;;;;;21.66;62.06;101995.34;4992970;28;20038;-68
2023/09/14 10:15:50;;;;;;;13.98;8.02;;;;;;;21.66;63.49;101999.78;4990237;28;20042;-67
2023/09/14 10:18:17;;;;;;;16.17;8.13;;;;;;;21.48;61.93;101995.09;4993395;28;20066;-67
2023/09/14 10:20:45;;;;;;;12.15;7.50;;;;;;;21.35;64.03;101998.47;4990352;28;20081;-67
2023/09/14 10:23:14;;;;;;;15.40;7.10;;;;;;;21.27;62.32;101998.66;4986699;28;20044;-67
2023/09/14 10:25:41;;;;;;;19.70;7.32;;;;;;;21.15;64.00;101986.03;5001454;28;20022;-67
2023/09/14 10:28:09;;;;;;;14.10;7.22;;;;;;;20.94;64.59;101992.22;4993277;28;20555;-67
2023/09/14 10:30:35;;;;;;;11.43;4.95;;;;;;;20.81;62.45;101984.25;4992743;28;20046;-67
2023/09/14 10:33:01;;;;;;;6.75;3.78;;;;;;;20.85;60.82;101985.50;4989465;28;20039;-67
2023/09/14 10:35:29;;;;;;;12.07;5.30;;;;;;;20.87;62.25;101980.03;4993051;28;20038;-67
2023/09/14 10:37:57;;;;;;;11.85;5.78;;;;;;;20.94;61.32;101980.88;5003958;28;20036;-67
2023/09/14 10:40:25;;;;;;;10.23;4.28;;;;;;;21.03;60.88;101977.06;4993630;28;20061;-67
2023/09/14 10:42:50;;;;;;;11.85;5.88;;;;;;;21.14;60.24;101978.31;4991312;28;20042;-66
2023/09/14 10:45:16;;;;;;;16.88;7.18;;;;;;;21.20;61.47;101973.06;4992954;28;20101;-66
2023/09/14 10:47:49;;;;;;;10.48;6.40;;;;;;;20.94;63.54;101973.78;4991030;28;20131;-67
2023/09/14 10:50:19;;;;;;;13.20;6.90;;;;;;;21.02;61.38;101978.09;4991005;28;20080;-67
2023/09/14 10:52:45;;;;;;;14.55;8.20;;;;;;;21.13;63.17;101974.84;4989234;28;20396;-67
2023/09/14 10:55:11;;;;;;;17.25;9.13;;;;;;;21.00;64.99;101973.00;4973545;28;20045;-67
2023/09/14 10:57:41;;;;;;;16.65;8.07;;;;;;;21.15;63.98;101975.50;4991582;28;20035;-67
2023/09/14 11:00:09;;;;;;;10.65;5.03;;;;;;;21.24;60.10;101977.94;4990301;28;20029;-67
2023/09/14 11:02:39;;;;;;;9.57;5.28;;;;;;;21.40;58.10;101972.31;4989594;28;20054;-67
2023/09/14 11:05:13;;;;;;;7.75;4.60;;;;;;;21.38;60.06;101971.69;5006719;28;20043;-67
2023/09/14 11:07:40;;;;;;;6.38;4.25;;;;;;;21.30;58.00;101971.88;4989203;28;20037;-66
2023/09/14 11:10:07;;;;;;;9.05;4.55;;;;;;;21.42;57.72;101966.81;4994690;28;20042;-67
2023/09/14 11:12:33;;;;;;;11.18;4.63;;;;;;;21.39;55.36;101968.03;4990587;28;20034;-67
2023/09/14 11:15:21;;;;;;;11.80;4.95;;;;;;;21.06;59.75;101963.50;4992026;28;20092;-67